Time;durP1;ratioP1;P1;durP2;ratioP2;P2;SDS_P1;SDS_P2;PMS_P1;PMS_P2;Temp;Humidity;BMP_temperature;BMP_pressure;BME280_temperature;BME280_humidity;BME280_pressure;Samples;Min_cycle;Max_cycle;Signal;HPM_P1;HPM_P2
2022/01/11 00:54:29;;;;;;;31.90;13.70;;;;;;;-5.48;79.57;99684.71;102732;1299;70682;-23
2022/01/11 00:57:01;;;;;;;30.20;8.60;;;;;;;-5.62;79.45;99682.23;103986;1284;61052;-22
2022/01/11 00:59:29;;;;;;;11.90;5.50;;;;;;;-5.99;81.00;99685.29;104410;1284;61201;-23
2022/01/11 01:01:56;;;;;;;27.00;8.50;;;;;;;-5.76;80.79;99688.40;104435;1284;72893;-22
2022/01/11 01:04:23;;;;;;;41.00;12.60;;;;;;;-5.43;79.19;99693.65;104441;1284;76152;-23
2022/01/11 01:06:50;;;;;;;25.00;10.70;;;;;;;-5.45;79.27;99692.14;104226;1286;73397;-23
2022/01/11 01:09:55;;;;;;;13.70;7.20;;;;;;;-5.46;79.44;99694.52;104419;1284;61375;-23
2022/01/11 01:12:22;;;;;;;10.00;5.60;;;;;;;-5.73;80.07;99691.94;104465;1282;61012;-23
2022/01/11 01:14:49;;;;;;;10.80;5.20;;;;;;;-5.89;81.19;99695.73;104337;1283;74734;-23
2022/01/11 01:17:16;;;;;;;11.00;6.10;;;;;;;-5.61;80.02;99697.13;104468;1283;75826;-24
2022/01/11 01:19:43;;;;;;;8.70;5.10;;;;;;;-5.32;79.05;99696.13;104091;1284;74571;-23
2022/01/11 01:22:10;;;;;;;30.10;10.90;;;;;;;-5.39;78.83;99693.46;103862;1283;60998;-23
2022/01/11 01:24:37;;;;;;;10.20;5.30;;;;;;;-5.57;79.31;99697.61;103914;1283;61030;-23
2022/01/11 01:27:05;;;;;;;21.20;9.80;;;;;;;-5.49;79.14;99697.74;104265;1279;73724;-22
2022/01/11 01:29:32;;;;;;;10.70;5.10;;;;;;;-5.78;79.61;99694.33;104394;1281;74965;-23
2022/01/11 01:32:00;;;;;;;4.70;3.30;;;;;;;-5.78;79.80;99698.91;104559;1281;74309;-23
2022/01/11 01:34:27;;;;;;;7.40;4.50;;;;;;;-5.47;78.72;99699.59;104510;1280;61108;-23
2022/01/11 01:36:54;;;;;;;7.10;4.40;;;;;;;-5.47;78.26;99699.77;104492;1281;61294;-23
2022/01/11 01:39:20;;;;;;;6.50;4.30;;;;;;;-5.59;78.50;99701.68;104323;1281;74921;-23
2022/01/11 01:41:48;;;;;;;6.70;3.50;;;;;;;-5.67;79.22;99704.60;104354;1281;75528;-23
2022/01/11 01:44:15;;;;;;;7.10;4.60;;;;;;;-5.70;79.18;99706.64;104318;1280;74408;-23
2022/01/11 01:46:42;;;;;;;7.30;4.30;;;;;;;-5.81;79.97;99709.57;104419;1280;61279;-23
2022/01/11 01:49:15;;;;;;;10.30;6.20;;;;;;;-5.65;79.39;99712.38;104299;1281;61428;-23
2022/01/11 01:51:44;;;;;;;9.20;4.20;;;;;;;-5.14;77.94;99718.69;104225;1280;72542;-23
2022/01/11 01:54:12;;;;;;;6.90;4.60;;;;;;;-4.83;76.76;99722.55;104252;1280;75853;-22
2022/01/11 01:56:40;;;;;;;6.00;4.20;;;;;;;-4.92;77.18;99725.67;104234;1280;71952;-24
2022/01/11 01:59:07;;;;;;;3.90;2.60;;;;;;;-5.22;77.94;99727.89;104193;1281;61106;-24
2022/01/11 02:01:42;;;;;;;4.30;3.10;;;;;;;-5.37;78.54;99730.02;104107;1280;61058;-23
2022/01/11 02:04:10;;;;;;;8.80;5.40;;;;;;;-5.55;79.05;99734.48;104465;1280;73577;-24
2022/01/11 02:06:37;;;;;;;6.20;4.50;;;;;;;-5.70;79.40;99729.31;104361;1280;75052;-23
2022/01/11 02:09:04;;;;;;;5.80;3.80;;;;;;;-5.40;78.81;99732.39;104271;1281;73435;-23
2022/01/11 02:11:31;;;;;;;6.70;4.10;;;;;;;-5.23;77.60;99732.12;104249;1281;61150;-24
2022/01/11 02:13:58;;;;;;;8.30;3.90;;;;;;;-5.26;77.74;99737.74;104314;1280;62606;-23
2022/01/11 02:16:25;;;;;;;5.50;3.80;;;;;;;-5.40;78.37;99737.80;104346;1281;74678;-23
2022/01/11 02:18:55;;;;;;;5.10;4.30;;;;;;;-5.63;78.72;99739.94;104220;1280;75896;-23
2022/01/11 02:21:22;;;;;;;8.10;4.80;;;;;;;-5.79;79.04;99733.08;104560;1281;74193;-23
2022/01/11 02:23:50;;;;;;;6.10;3.80;;;;;;;-5.80;78.84;99737.63;104611;1281;62574;-23
2022/01/11 02:26:17;;;;;;;9.40;4.90;;;;;;;-5.31;77.49;99744.02;104543;1280;62068;-23
2022/01/11 02:28:45;;;;;;;5.60;3.90;;;;;;;-5.52;77.39;99733.30;104446;1281;74876;-23
2022/01/11 02:31:12;;;;;;;9.10;4.60;;;;;;;-5.38;77.11;99739.49;104286;1281;75144;-23
2022/01/11 02:33:51;;;;;;;8.60;5.40;;;;;;;-5.40;77.39;99742.89;104908;1271;74737;-23
2022/01/11 02:36:57;;;;;;;6.20;4.40;;;;;;;-5.75;78.62;99737.95;104290;1277;61062;-23
2022/01/11 02:39:32;;;;;;;6.40;3.80;;;;;;;-5.86;79.10;99739.18;104551;1277;61357;-23
2022/01/11 02:42:04;;;;;;;8.20;4.90;;;;;;;-5.52;78.01;99742.09;104665;1271;73672;-23
2022/01/11 02:44:42;;;;;;;6.20;3.90;;;;;;;-5.28;77.00;99745.19;104903;1271;75056;-23
2022/01/11 02:47:13;;;;;;;7.10;3.90;;;;;;;-5.41;77.12;99743.57;104908;1271;73343;-22
2022/01/11 02:49:40;;;;;;;6.50;3.50;;;;;;;-5.46;77.52;99743.94;104868;1271;61256;-23
2022/01/11 02:52:13;;;;;;;5.50;3.30;;;;;;;-5.58;77.76;99746.86;105139;1271;61027;-22
2022/01/11 02:54:43;;;;;;;9.00;4.80;;;;;;;-5.80;78.34;99743.73;104795;1272;73776;-23
2022/01/11 02:57:13;;;;;;;7.20;4.00;;;;;;;-5.82;79.04;99745.09;104956;1271;75847;-23
2022/01/11 02:59:41;;;;;;;11.00;5.90;;;;;;;-5.40;77.47;99751.36;105122;1271;73569;-23
2022/01/11 03:02:08;;;;;;;11.70;6.10;;;;;;;-5.10;76.75;99751.86;105094;1271;61076;-23
2022/01/11 03:04:36;;;;;;;15.80;6.80;;;;;;;-5.16;77.08;99752.73;105095;1271;61296;-23
2022/01/11 03:07:04;;;;;;;14.10;6.70;;;;;;;-5.31;77.60;99758.23;105147;1271;74570;-23
2022/01/11 03:12:26;;;;;;;14.70;6.40;;;;;;;-5.71;79.20;99765.17;105074;1271;74637;-23
2022/01/11 03:14:53;;;;;;;21.90;8.60;;;;;;;-5.37;78.95;99768.27;104942;1271;61013;-23
2022/01/11 03:17:22;;;;;;;28.50;12.30;;;;;;;-5.12;77.49;99769.31;105147;1271;61175;-23
2022/01/11 03:19:49;;;;;;;12.50;6.30;;;;;;;-5.18;76.76;99771.21;104962;1274;74523;-23
2022/01/11 03:22:16;;;;;;;10.70;6.10;;;;;;;-5.35;75.78;99766.40;104831;1274;74974;-22
2022/01/11 03:24:44;;;;;;;8.80;5.00;;;;;;;-5.50;75.47;99769.66;105088;1271;74330;-23
2022/01/11 03:27:11;;;;;;;10.60;5.20;;;;;;;-5.65;75.28;99772.77;105095;1274;61151;-23
2022/01/11 03:29:39;;;;;;;13.50;6.70;;;;;;;-5.73;75.72;99776.52;104881;1271;61946;-23
2022/01/11 03:32:07;;;;;;;9.00;5.20;;;;;;;-5.65;76.05;99782.75;104987;1271;73669;-23
2022/01/11 03:34:55;;;;;;;16.90;7.50;;;;;;;-5.09;74.73;99785.20;104835;1274;75875;-23
2022/01/11 03:37:22;;;;;;;10.80;5.80;;;;;;;-4.89;74.14;99789.49;105061;1274;72442;-22
2022/01/11 03:39:50;;;;;;;17.60;8.50;;;;;;;-5.09;74.29;99789.77;104788;1271;61109;-23
2022/01/11 03:42:17;;;;;;;8.30;5.10;;;;;;;-5.06;74.87;99788.25;104971;1271;61077;-22
2022/01/11 03:44:44;;;;;;;10.10;6.10;;;;;;;-5.34;75.90;99785.16;104898;1271;74563;-23
2022/01/11 03:47:11;;;;;;;10.30;5.60;;;;;;;-5.61;76.79;99788.83;104775;1271;74958;-23
2022/01/11 03:49:38;;;;;;;7.40;5.00;;;;;;;-5.63;77.08;99784.27;104649;1273;72453;-22
2022/01/11 03:52:05;;;;;;;11.50;6.40;;;;;;;-5.37;77.12;99791.45;104619;1274;61031;-22
2022/01/11 03:54:50;;;;;;;7.20;4.80;;;;;;;-5.01;75.75;99796.68;104937;1271;61323;-23
2022/01/11 03:57:23;;;;;;;8.40;5.00;;;;;;;-5.17;76.18;99792.70;105108;1271;75685;-22
2022/01/11 03:59:51;;;;;;;5.80;4.10;;;;;;;-5.36;76.86;99795.50;105127;1274;76035;-23
2022/01/11 04:02:18;;;;;;;6.80;4.20;;;;;;;-5.53;77.46;99794.39;105144;1271;74409;-23
2022/01/11 04:04:52;;;;;;;10.20;5.20;;;;;;;-5.71;78.36;99800.89;105099;1271;61127;-23
2022/01/11 04:07:20;;;;;;;;;;;;;;;-5.69;78.53;99805.45;105145;1271;61149;-23
2022/01/11 04:09:48;;;;;;;6.20;3.90;;;;;;;-5.24;77.37;99806.28;105116;1274;74531;-23
2022/01/11 04:12:15;;;;;;;7.40;3.60;;;;;;;-5.07;76.20;99805.02;105076;1274;75964;-23
2022/01/11 04:14:43;;;;;;;8.90;4.40;;;;;;;-5.08;75.53;99805.36;105121;1271;74313;-23
2022/01/11 04:17:10;;;;;;;8.50;4.00;;;;;;;-5.23;76.36;99810.52;105142;1271;61273;-22
2022/01/11 04:19:38;;;;;;;7.30;3.70;;;;;;;-5.43;76.76;99811.95;105114;1271;61022;-22
2022/01/11 04:22:05;;;;;;;4.20;3.10;;;;;;;-5.77;77.28;99813.25;105081;1271;73595;-23
2022/01/11 04:24:34;;;;;;;5.70;3.40;;;;;;;-5.94;78.12;99816.84;105167;1271;76028;-23
2022/01/11 04:27:01;;;;;;;8.60;4.40;;;;;;;-5.78;77.22;99820.17;105079;1271;73187;-23
2022/01/11 04:29:30;;;;;;;10.10;4.90;;;;;;;-5.41;76.04;99818.89;105168;1271;61193;-22
2022/01/11 04:31:56;;;;;;;12.00;5.30;;;;;;;-5.38;75.35;99826.15;104907;1271;61941;-22
2022/01/11 04:34:25;;;;;;;27.00;13.40;;;;;;;-5.49;75.79;99830.59;104797;1271;75340;-23
2022/01/11 04:36:54;;;;;;;10.70;6.20;;;;;;;-5.63;76.02;99833.50;104898;1271;76276;-22
2022/01/11 04:39:22;;;;;;;10.90;5.00;;;;;;;-5.75;76.95;99838.44;105107;1270;74912;-23
2022/01/11 04:41:50;;;;;;;8.20;4.30;;;;;;;-5.91;77.85;99841.17;105023;1271;61204;-22
2022/01/11 04:44:18;;;;;;;8.40;5.00;;;;;;;-5.73;76.76;99843.67;104913;1271;62009;-22
2022/01/11 04:46:46;;;;;;;9.60;5.50;;;;;;;-5.36;75.04;99842.05;105091;1271;73954;-26
2022/01/11 04:49:13;;;;;;;13.40;6.70;;;;;;;-5.27;74.40;99846.42;104835;1271;76127;-24
2022/01/11 04:51:40;;;;;;;58.80;23.60;;;;;;;-5.53;75.04;99852.09;104899;1270;74391;-24
2022/01/11 04:54:09;;;;;;;23.50;11.50;;;;;;;-5.89;75.62;99844.04;104945;1271;61099;-24
2022/01/11 04:56:36;;;;;;;23.40;9.80;;;;;;;-5.88;75.70;99850.63;104688;1274;61105;-25
2022/01/11 04:59:03;;;;;;;17.70;9.80;;;;;;;-5.98;76.15;99854.04;104989;1271;74421;-24
2022/01/11 05:01:31;;;;;;;7.10;3.80;;;;;;;-5.95;76.37;99856.23;104815;1271;76145;-25
2022/01/11 05:03:58;;;;;;;6.00;4.30;;;;;;;-5.61;75.15;99858.20;104899;1271;73365;-24
2022/01/11 05:06:25;;;;;;;6.60;4.40;;;;;;;-5.49;74.75;99851.73;104891;1271;61019;-23
2022/01/11 05:08:53;;;;;;;8.10;5.40;;;;;;;-5.52;74.65;99857.17;104952;1271;61085;-23
2022/01/11 05:11:22;;;;;;;6.10;3.80;;;;;;;-5.58;75.27;99859.55;104859;1271;75420;-22
2022/01/11 05:13:49;;;;;;;8.50;5.50;;;;;;;-5.70;75.41;99861.09;104795;1272;75859;-22
2022/01/11 05:16:27;;;;;;;9.20;6.10;;;;;;;-5.78;76.51;99873.46;104777;1271;74542;-24
2022/01/11 05:18:54;;;;;;;7.90;5.20;;;;;;;-5.83;76.81;99874.99;104829;1273;61131;-24
2022/01/11 05:21:22;;;;;;;3.60;2.70;;;;;;;-5.55;76.20;99875.95;104830;1274;61883;-23
2022/01/11 05:23:49;;;;;;;8.20;5.10;;;;;;;-5.14;74.51;99872.11;104945;1271;75645;-24
2022/01/11 05:26:17;;;;;;;6.80;4.20;;;;;;;-5.35;74.83;99871.50;104671;1274;76043;-22
2022/01/11 05:28:44;;;;;;;6.20;4.30;;;;;;;-5.44;75.30;99879.48;105059;1271;74146;-24
2022/01/11 05:31:11;;;;;;;9.30;5.40;;;;;;;-5.73;76.24;99878.70;104876;1271;61172;-23
2022/01/11 05:33:38;;;;;;;10.20;5.80;;;;;;;-5.79;76.70;99882.10;105117;1271;61797;-24
2022/01/11 05:36:05;;;;;;;21.80;10.60;;;;;;;-5.86;77.44;99888.35;105136;1271;75408;-24
2022/01/11 05:38:33;;;;;;;7.00;4.20;;;;;;;-5.89;77.81;99889.88;105128;1271;74474;-25
2022/01/11 05:40:59;;;;;;;46.20;22.50;;;;;;;-5.29;76.11;99894.84;105057;1271;73411;-24
2022/01/11 05:43:27;;;;;;;14.00;8.80;;;;;;;-5.27;75.35;99898.05;105123;1271;61145;-23
2022/01/11 05:45:57;;;;;;;33.60;19.70;;;;;;;-5.34;75.69;99899.94;104892;1273;61093;-22
2022/01/11 05:48:25;;;;;;;38.70;21.60;;;;;;;-5.68;76.89;99904.73;105185;1271;75459;-24
2022/01/11 05:50:54;;;;;;;32.30;18.50;;;;;;;-5.80;77.80;99903.57;105093;1274;75796;-23
2022/01/11 05:53:21;;;;;;;13.70;8.90;;;;;;;-5.77;77.83;99908.81;105175;1271;74231;-23
2022/01/11 05:55:48;;;;;;;6.60;4.00;;;;;;;-5.62;77.51;99908.46;105138;1271;61317;-24
2022/01/11 05:58:15;;;;;;;10.80;8.70;;;;;;;-5.32;77.00;99908.91;105072;1271;61998;-23
2022/01/11 06:00:42;;;;;;;10.00;5.60;;;;;;;-5.13;76.23;99914.77;105109;1271;73234;-23
2022/01/11 06:03:10;;;;;;;7.70;4.80;;;;;;;-5.57;76.87;99913.19;105104;1271;75878;-23
2022/01/11 06:05:39;;;;;;;6.90;4.40;;;;;;;-5.43;76.89;99921.63;105137;1271;74328;-23
2022/01/11 06:08:09;;;;;;;75.90;45.50;;;;;;;-5.69;77.86;99920.14;105108;1271;61217;-23
2022/01/11 06:10:37;;;;;;;72.20;44.60;;;;;;;-5.83;78.72;99924.21;105049;1270;61155;-24
2022/01/11 06:13:04;;;;;;;46.40;29.70;;;;;;;-5.40;77.67;99931.43;104875;1271;75263;-23
2022/01/11 06:15:33;;;;;;;66.70;50.10;;;;;;;-4.94;76.15;99934.86;105185;1271;75977;-23
2022/01/11 06:18:21;;;;;;;11.10;6.00;;;;;;;-5.28;76.72;99931.58;105131;1271;75946;-23
2022/01/11 06:21:14;;;;;;;14.20;6.40;;;;;;;-5.33;77.28;99936.84;105063;1271;61107;-22
2022/01/11 06:23:42;;;;;;;11.20;6.10;;;;;;;-5.44;77.87;99939.23;104859;1274;62064;-23
2022/01/11 06:26:10;;;;;;;20.30;11.30;;;;;;;-5.60;78.19;99940.09;105115;1271;74549;-23
2022/01/11 06:28:38;;;;;;;16.90;8.00;;;;;;;-5.68;78.16;99939.08;105139;1271;75831;-23
2022/01/11 06:31:06;;;;;;;18.00;11.10;;;;;;;-5.20;76.77;99939.34;105090;1271;74482;-22
2022/01/11 06:33:34;;;;;;;15.20;6.00;;;;;;;-4.94;75.84;99945.54;105068;1271;61128;-22
2022/01/11 06:36:01;;;;;;;21.50;11.50;;;;;;;-5.03;76.18;99947.09;105003;1271;61186;-24
2022/01/11 06:38:28;;;;;;;18.90;6.70;;;;;;;-5.32;76.94;99950.55;105142;1271;75505;-23
2022/01/11 06:40:55;;;;;;;10.40;5.80;;;;;;;-5.48;77.26;99954.64;104904;1271;74709;-23
2022/01/11 06:43:23;;;;;;;6.00;4.00;;;;;;;-5.76;78.37;99961.92;105101;1271;74345;-23
2022/01/11 06:45:51;;;;;;;13.00;6.70;;;;;;;-5.61;78.05;99957.19;104817;1271;63693;-23
2022/01/11 06:48:19;;;;;;;8.40;4.50;;;;;;;-5.35;77.18;99957.65;105111;1271;61749;-22
2022/01/11 06:50:47;;;;;;;8.80;4.70;;;;;;;-5.08;76.33;99969.79;105130;1271;75456;-23
2022/01/11 06:53:14;;;;;;;11.20;5.50;;;;;;;-5.02;76.46;99971.98;105118;1271;75767;-23
2022/01/11 06:55:45;;;;;;;6.90;3.70;;;;;;;-5.14;76.95;99974.71;104964;1271;74509;-22
2022/01/11 06:58:13;;;;;;;8.70;5.00;;;;;;;-5.38;77.19;99975.44;104629;1274;61261;-22
2022/01/11 07:00:41;;;;;;;6.90;4.60;;;;;;;-5.60;77.99;99977.16;105156;1270;61184;-23
2022/01/11 07:03:10;;;;;;;14.10;7.50;;;;;;;-5.72;78.63;99974.44;104824;1271;75391;-24
2022/01/11 07:05:57;;;;;;;21.80;13.50;;;;;;;-5.26;76.97;99980.50;104960;1271;75902;-22
2022/01/11 07:08:25;;;;;;;17.60;11.00;;;;;;;-5.30;77.13;99979.49;104980;1271;73329;-22
2022/01/11 07:10:54;;;;;;;14.00;8.10;;;;;;;-5.40;77.62;99989.48;105137;1271;61131;-22
2022/01/11 07:13:21;;;;;;;6.90;4.70;;;;;;;-5.53;78.01;99987.30;104969;1274;60927;-22
2022/01/11 07:15:49;;;;;;;17.30;7.70;;;;;;;-5.59;77.76;99990.52;105090;1273;74496;-22
2022/01/11 07:18:16;;;;;;;9.50;4.60;;;;;;;-5.68;77.99;99996.42;104944;1271;75938;-22
2022/01/11 07:20:44;;;;;;;12.70;6.70;;;;;;;-5.63;77.48;99993.22;104796;1271;72004;-24
2022/01/11 07:23:20;;;;;;;8.60;5.30;;;;;;;-5.27;76.40;99994.55;104794;1271;61105;-23
2022/01/11 07:25:47;;;;;;;13.80;7.50;;;;;;;-5.27;76.93;99999.80;104794;1272;61895;-23
2022/01/11 07:28:15;;;;;;;10.60;6.10;;;;;;;-5.54;78.00;99994.58;104680;1274;75667;-23
2022/01/11 07:30:43;;;;;;;9.70;5.20;;;;;;;-5.76;78.49;99999.66;105005;1271;76546;-23
2022/01/11 07:33:10;;;;;;;14.10;8.60;;;;;;;-5.54;78.41;100004.06;104829;1271;73343;-22
2022/01/11 07:35:37;;;;;;;16.00;7.70;;;;;;;-5.54;78.74;100010.31;104823;1271;62347;-22
2022/01/11 07:38:04;;;;;;;11.70;6.30;;;;;;;-5.33;78.13;100010.48;104897;1271;61185;-20
2022/01/11 07:40:32;;;;;;;16.10;10.00;;;;;;;-5.12;77.06;100009.94;105118;1271;74459;-23
2022/01/11 07:43:11;;;;;;;59.20;37.50;;;;;;;-5.01;76.20;100011.77;104642;1274;75749;-23
2022/01/11 07:45:52;;;;;;;34.60;19.40;;;;;;;-5.14;76.22;100016.03;104971;1271;74251;-24
2022/01/11 07:48:21;;;;;;;7.10;4.50;;;;;;;-5.24;76.70;100017.58;105148;1271;61048;-23
2022/01/11 07:50:56;;;;;;;43.00;30.20;;;;;;;-5.53;77.55;100021.98;104714;1274;62194;-23
2022/01/11 07:53:23;;;;;;;11.10;7.40;;;;;;;-5.86;78.60;100016.23;105109;1271;74687;-23
2022/01/11 07:55:54;;;;;;;7.00;4.30;;;;;;;-5.43;78.11;100022.32;105094;1274;75876;-24
2022/01/11 07:58:21;;;;;;;5.70;3.60;;;;;;;-5.40;77.56;100023.52;105124;1271;74609;-22
2022/01/11 08:00:49;;;;;;;10.90;5.30;;;;;;;-5.26;77.07;100024.02;105174;1271;61025;-22
2022/01/11 08:03:18;;;;;;;5.00;3.10;;;;;;;-5.42;77.16;100024.02;105161;1271;61156;-22
2022/01/11 08:05:57;;;;;;;8.30;5.00;;;;;;;-5.52;77.07;100022.16;104905;1271;75656;-22
2022/01/11 08:08:26;;;;;;;20.40;12.60;;;;;;;-5.68;77.75;100025.37;105094;1271;75875;-22
2022/01/11 08:10:55;;;;;;;38.70;24.90;;;;;;;-5.71;78.47;100029.25;104909;1271;74433;-22
2022/01/11 08:13:23;;;;;;;6.70;4.50;;;;;;;-5.47;77.69;100031.98;104838;1271;61144;-22
2022/01/11 08:15:51;;;;;;;11.80;6.00;;;;;;;-5.14;76.63;100030.92;104939;1271;61163;-22
2022/01/11 08:18:18;;;;;;;7.40;4.20;;;;;;;-5.30;76.38;100030.61;104918;1271;73324;-25
2022/01/11 08:20:45;;;;;;;9.30;4.20;;;;;;;-5.58;77.27;100034.86;104918;1271;74978;-22
2022/01/11 08:23:13;;;;;;;9.80;6.10;;;;;;;-5.74;78.07;100035.34;104639;1271;73445;-22
2022/01/11 08:25:41;;;;;;;9.10;6.00;;;;;;;-5.54;77.67;100040.44;104877;1271;61236;-22
2022/01/11 08:28:09;;;;;;;7.40;5.00;;;;;;;-5.63;77.63;100037.73;105148;1271;61240;-22
2022/01/11 08:30:39;;;;;;;7.90;3.40;;;;;;;-5.62;77.63;100036.04;105134;1271;74039;-23
2022/01/11 08:33:09;;;;;;;17.10;11.80;;;;;;;-5.31;76.90;100037.55;105000;1270;72410;-24
2022/01/11 08:35:36;;;;;;;7.40;4.60;;;;;;;-5.26;76.48;100033.66;104885;1271;74302;-22
2022/01/11 08:38:05;;;;;;;7.80;4.70;;;;;;;-5.32;76.53;100036.72;104847;1271;61035;-24
2022/01/11 08:40:32;;;;;;;7.10;3.90;;;;;;;-5.47;77.06;100031.64;104913;1274;61144;-24
2022/01/11 08:43:04;;;;;;;7.30;4.60;;;;;;;-5.60;77.95;100031.81;104848;1271;74608;-24
2022/01/11 08:45:34;;;;;;;8.20;5.30;;;;;;;-5.82;78.70;100029.41;104929;1271;74506;-24
2022/01/11 08:48:05;;;;;;;6.70;4.40;;;;;;;-5.63;78.17;100032.81;104768;1273;74383;-24
2022/01/11 08:50:39;;;;;;;13.30;8.30;;;;;;;-5.50;77.01;100042.31;104625;1271;61192;-24
2022/01/11 08:53:06;;;;;;;10.90;7.70;;;;;;;-5.59;76.94;100043.81;104848;1274;61887;-24
2022/01/11 08:55:34;;;;;;;10.10;4.80;;;;;;;-5.69;77.54;100037.39;105150;1272;74423;-22
2022/01/11 08:58:03;;;;;;;22.50;10.60;;;;;;;-5.83;78.31;100042.10;105122;1274;75953;-22
2022/01/11 09:00:32;;;;;;;196.40;107.10;;;;;;;-5.79;78.53;100041.44;105136;1274;73963;-22
2022/01/11 09:03:05;;;;;;;;;;;;;;;-5.77;78.94;100042.11;104806;1271;62668;-22
2022/01/11 09:05:38;;;;;;;486.40;181.90;;;;;;;-5.16;77.04;100047.20;105111;1271;61036;-22
2022/01/11 09:08:06;;;;;;;289.60;89.10;;;;;;;-4.83;75.29;100048.67;105152;1271;74575;-22
2022/01/11 09:10:33;;;;;;;345.10;113.00;;;;;;;-4.90;75.62;100044.28;105122;1271;76041;-22
2022/01/11 09:13:06;;;;;;;41.60;12.30;;;;;;;-5.22;76.46;100038.90;105167;1271;73369;-22
2022/01/11 09:15:35;;;;;;;110.30;27.70;;;;;;;-5.37;77.36;100037.05;105155;1271;61189;-24
2022/01/11 09:18:03;;;;;;;66.40;16.80;;;;;;;-5.42;77.42;100038.73;105117;1271;61047;-22
2022/01/11 09:20:32;;;;;;;150.60;40.00;;;;;;;-5.45;77.95;100038.25;105184;1271;75604;-22
2022/01/11 09:23:00;;;;;;;87.00;25.30;;;;;;;-5.26;77.68;100037.55;105106;1271;75051;-24
2022/01/11 09:25:29;;;;;;;129.60;34.90;;;;;;;-4.66;75.83;100031.50;105078;1274;73362;-22
2022/01/11 09:28:00;;;;;;;175.40;50.20;;;;;;;-4.69;74.93;100028.97;105136;1274;61148;-24
2022/01/11 09:30:28;;;;;;;530.80;128.00;;;;;;;-4.86;75.58;100031.05;105121;1272;61056;-22
2022/01/11 09:32:56;;;;;;;258.60;69.40;;;;;;;-5.13;76.66;100027.38;105128;1274;75459;-22
2022/01/11 09:35:25;;;;;;;68.80;22.00;;;;;;;-5.20;76.76;100027.38;105117;1274;76070;-22
2022/01/11 09:37:58;;;;;;;33.00;10.90;;;;;;;-5.41;77.96;100031.98;105020;1274;74419;-22
2022/01/11 09:40:26;;;;;;;17.30;9.70;;;;;;;-5.41;77.66;100031.98;105134;1271;61150;-22
2022/01/11 09:42:59;;;;;;;15.40;8.50;;;;;;;-5.35;77.91;100028.08;105141;1271;61089;-22
2022/01/11 09:45:26;;;;;;;9.00;5.00;;;;;;;-4.98;76.60;100032.94;105117;1271;74789;-22
2022/01/11 09:47:58;;;;;;;9.70;5.50;;;;;;;-4.77;75.78;100033.73;104911;1274;75032;-22
2022/01/11 09:50:25;;;;;;;12.40;6.20;;;;;;;-5.11;76.76;100031.96;105048;1274;74325;-22
2022/01/11 09:53:01;;;;;;;12.20;7.20;;;;;;;-5.12;77.05;100031.27;105134;1274;61243;-25
2022/01/11 09:55:30;;;;;;;10.80;6.30;;;;;;;-5.21;77.40;100031.29;105072;1274;61038;-22
2022/01/11 09:57:58;;;;;;;6.80;4.00;;;;;;;-5.42;78.03;100029.77;104889;1270;74461;-21
2022/01/11 10:00:54;;;;;;;10.30;5.00;;;;;;;-5.18;78.00;100023.84;104893;1271;74423;-21
2022/01/11 10:04:00;;;;;;;239.70;58.00;;;;;;;-4.79;76.35;100030.02;105034;1271;74430;-24
2022/01/11 10:06:37;;;;;;;15.30;7.80;;;;;;;-4.75;75.92;100028.98;105039;1270;61048;-24
2022/01/11 10:09:16;;;;;;;8.60;5.00;;;;;;;-4.81;75.64;100029.18;104920;1271;61137;-26
2022/01/11 10:11:49;;;;;;;37.20;14.80;;;;;;;-5.06;76.47;100025.00;104747;1271;74365;-22
2022/01/11 10:14:32;;;;;;;27.00;10.90;;;;;;;-5.17;77.20;100023.99;104712;1271;76004;-24
2022/01/11 10:17:04;;;;;;;17.00;7.40;;;;;;;-5.40;78.17;100025.21;104797;1272;73518;-24
2022/01/11 10:19:31;;;;;;;25.30;13.90;;;;;;;-5.38;78.36;100030.27;105098;1271;62715;-25
2022/01/11 10:22:06;;;;;;;;;;;;;;;-5.04;77.35;100031.60;105134;1271;61019;-26
2022/01/11 10:24:38;;;;;;;13.20;6.40;;;;;;;-4.56;75.50;100033.66;105113;1271;75533;-24
2022/01/11 10:27:19;;;;;;;7.60;4.10;;;;;;;-4.78;76.02;100032.73;105144;1271;76054;-23
2022/01/11 10:29:48;;;;;;;7.80;4.60;;;;;;;-4.95;76.46;100026.33;104801;1271;74430;-23
2022/01/11 10:32:20;;;;;;;6.40;4.10;;;;;;;-5.25;77.29;100027.57;104718;1274;61045;-23
2022/01/11 10:34:50;;;;;;;10.40;7.40;;;;;;;-5.32;77.78;100028.42;104645;1272;61045;-24
2022/01/11 10:37:31;;;;;;;8.90;4.60;;;;;;;-5.34;78.00;100029.44;104623;1274;74779;-24
2022/01/11 10:40:08;;;;;;;10.80;5.00;;;;;;;-4.97;76.81;100024.46;104752;1274;76217;-24
2022/01/11 10:42:40;;;;;;;36.30;13.80;;;;;;;-4.56;75.70;100020.78;105098;1272;73451;-23
2022/01/11 10:45:22;;;;;;;19.30;7.80;;;;;;;-4.49;74.85;100015.52;104902;1271;61145;-23
2022/01/11 10:47:52;;;;;;;8.60;4.30;;;;;;;-4.46;74.54;100015.16;105102;1271;61095;-23
2022/01/11 10:50:28;;;;;;;100.00;33.50;;;;;;;-4.79;75.93;100023.23;104910;1274;74562;-24
2022/01/11 10:52:58;;;;;;;39.80;12.40;;;;;;;-5.14;76.92;100017.39;105164;1271;74562;-23
2022/01/11 10:55:27;;;;;;;50.30;19.30;;;;;;;-4.97;76.96;100021.25;104942;1272;74475;-22
2022/01/11 10:58:05;;;;;;;8.60;4.70;;;;;;;-5.07;77.29;100023.48;104938;1271;62593;-23
2022/01/11 11:00:49;;;;;;;10.40;5.70;;;;;;;-4.53;76.09;100022.13;104758;1274;61849;-24
2022/01/11 11:03:27;;;;;;;9.60;6.50;;;;;;;-4.05;73.94;100022.25;105005;1274;74638;-24
2022/01/11 11:06:07;;;;;;;6.70;3.90;;;;;;;-4.25;74.52;100026.24;104637;1274;74751;-22
2022/01/11 11:08:41;;;;;;;8.20;5.30;;;;;;;-4.36;74.44;100025.78;104808;1274;70816;-22
2022/01/11 11:11:20;;;;;;;7.90;4.70;;;;;;;-4.94;75.93;100028.38;105065;1271;61134;-23
2022/01/11 11:14:16;;;;;;;257.90;51.20;;;;;;;-4.91;76.31;100025.98;104646;1274;62092;-24
2022/01/11 11:17:04;;;;;;;38.20;19.20;;;;;;;-5.23;77.48;100026.55;104885;1271;75689;-22
2022/01/11 11:19:54;;;;;;;10.60;6.60;;;;;;;-4.85;76.69;100025.29;105093;1272;76265;-22
2022/01/11 11:22:24;;;;;;;13.20;7.80;;;;;;;-4.34;74.66;100027.31;104889;1272;72786;-22
2022/01/11 11:24:52;;;;;;;12.60;7.10;;;;;;;-4.50;74.36;100025.34;105112;1271;61360;-22
2022/01/11 11:27:21;;;;;;;7.90;4.80;;;;;;;-4.52;74.48;100016.54;105105;1271;61172;-22
2022/01/11 11:29:49;;;;;;;12.00;6.30;;;;;;;-4.55;74.66;100018.59;105144;1272;75659;-23
2022/01/11 11:32:20;;;;;;;12.90;8.30;;;;;;;-4.69;75.35;100018.98;105160;1271;75985;-22
2022/01/11 11:34:49;;;;;;;9.50;4.80;;;;;;;-4.86;75.50;100015.64;105143;1271;73326;-22
2022/01/11 11:37:19;;;;;;;8.70;5.00;;;;;;;-4.91;76.06;100015.14;104766;1275;62363;-22
2022/01/11 11:39:46;;;;;;;7.90;4.20;;;;;;;-4.95;76.79;100013.27;104980;1271;61163;-22
2022/01/11 11:42:16;;;;;;;4.90;3.70;;;;;;;-4.47;75.54;100013.96;105067;1271;74734;-22
2022/01/11 11:44:44;;;;;;;10.00;6.00;;;;;;;-3.99;73.35;100009.48;104719;1274;76002;-23
2022/01/11 11:47:11;;;;;;;8.70;5.20;;;;;;;-4.05;72.77;100003.92;104956;1274;74802;-22
2022/01/11 11:49:54;;;;;;;8.30;5.40;;;;;;;-4.42;74.23;100010.39;104965;1274;61133;-22
2022/01/11 11:52:28;;;;;;;31.70;13.60;;;;;;;-4.29;74.21;100010.16;104623;1275;61092;-23
2022/01/11 11:55:08;;;;;;;9.80;6.10;;;;;;;-4.70;75.26;100010.34;104608;1271;74627;-25
2022/01/11 11:57:37;;;;;;;8.40;4.70;;;;;;;-4.71;75.70;100003.90;104814;1271;73450;-22
2022/01/11 12:00:11;;;;;;;6.00;3.80;;;;;;;-4.85;75.92;100008.35;104722;1271;73200;-22
2022/01/11 12:02:44;;;;;;;4.90;3.20;;;;;;;-4.52;74.94;100003.48;104745;1271;201302;-24
2022/01/11 12:05:42;;;;;;;100.50;38.00;;;;;;;-4.20;73.61;100007.57;104922;1274;61893;-23
2022/01/11 12:08:38;;;;;;;10.80;4.30;;;;;;;-4.08;73.10;100006.48;105100;1271;73519;-23
2022/01/11 12:11:10;;;;;;;17.80;6.40;;;;;;;-4.14;73.06;100002.27;104989;1271;75921;-22
2022/01/11 12:13:45;;;;;;;35.50;11.00;;;;;;;-4.22;73.42;100006.90;105070;1274;74391;-23
2022/01/11 12:16:38;;;;;;;14.60;5.80;;;;;;;-4.47;74.19;100006.35;104628;1274;61170;-22
2022/01/11 12:19:14;;;;;;;8.40;4.20;;;;;;;-4.73;75.52;100008.48;104780;1274;61120;-22
2022/01/11 12:21:53;;;;;;;6.50;4.30;;;;;;;-4.91;75.48;100011.09;105037;1271;75602;-22
2022/01/11 12:24:36;;;;;;;7.90;4.60;;;;;;;-4.59;74.97;100009.42;105122;1274;76128;-23
2022/01/11 12:27:03;;;;;;;5.70;4.10;;;;;;;-4.39;73.91;100009.19;104824;1274;74671;-23
2022/01/11 12:29:30;;;;;;;7.60;4.20;;;;;;;-4.33;73.49;100008.31;105055;1274;61258;-23